Time;durP1;ratioP1;P1;durP2;ratioP2;P2;SDS_P1;SDS_P2;PMS_P1;PMS_P2;Temp;Humidity;BMP_temperature;BMP_pressure;BME280_temperature;BME280_humidity;BME280_pressure;Samples;Min_cycle;Max_cycle;Signal;HPM_P1;HPM_P2
2023/09/17 00:00:04;;;;;;;499.57;248.90;;;;;;;;;;4962252;28;20217;-70
2023/09/17 00:02:30;;;;;;;488.27;242.63;;;;;;;;;;4980370;28;20300;-70
2023/09/17 00:04:56;;;;;;;481.60;237.67;;;;;;;;;;4964142;28;20741;-70
2023/09/17 00:07:22;;;;;;;460.23;223.80;;;;;;;;;;4962113;28;20703;-70
2023/09/17 00:09:49;;;;;;;464.17;226.37;;;;;;;;;;4963049;28;20212;-70
2023/09/17 00:12:15;;;;;;;459.13;225.00;;;;;;;;;;4977125;28;20264;-70
2023/09/17 00:14:41;;;;;;;498.47;240.87;;;;;;;;;;4980877;28;21712;-70
2023/09/17 00:17:07;;;;;;;459.53;224.13;;;;;;;;;;4974169;28;20358;-69
2023/09/17 00:19:33;;;;;;;487.73;236.93;;;;;;;;;;4966880;28;20775;-70
2023/09/17 00:21:59;;;;;;;511.43;256.47;;;;;;;;;;4982706;28;20188;-69
2023/09/17 00:24:25;;;;;;;531.70;263.07;;;;;;;;;;4965418;28;20331;-71
2023/09/17 00:26:51;;;;;;;491.40;242.37;;;;;;;;;;4981250;28;20785;-69
2023/09/17 00:29:17;;;;;;;497.70;242.83;;;;;;;;;;4979257;28;20217;-69
2023/09/17 00:31:43;;;;;;;487.33;240.37;;;;;;;;;;4966173;28;20217;-69
2023/09/17 00:34:09;;;;;;;488.20;235.07;;;;;;;;;;4963327;28;20251;-70
2023/09/17 00:36:36;;;;;;;502.60;248.17;;;;;;;;;;4983110;28;20219;-69
2023/09/17 00:39:03;;;;;;;513.87;252.23;;;;;;;;;;4960847;28;20252;-70
2023/09/17 00:41:29;;;;;;;483.03;231.87;;;;;;;;;;4985977;28;20205;-70
2023/09/17 00:43:55;;;;;;;512.97;248.47;;;;;;;;;;4976659;28;20225;-70
2023/09/17 00:46:21;;;;;;;444.93;215.00;;;;;;;;;;4966978;28;20248;-70
2023/09/17 00:48:47;;;;;;;506.30;248.90;;;;;;;;;;4977523;28;20277;-70
2023/09/17 00:51:13;;;;;;;471.30;221.70;;;;;;;;;;4962615;28;20177;-69
2023/09/17 00:53:40;;;;;;;540.90;265.87;;;;;;;;;;4975454;28;20217;-70
2023/09/17 00:56:06;;;;;;;522.53;254.13;;;;;;;;;;4962674;28;20572;-69
2023/09/17 00:58:33;;;;;;;525.13;252.07;;;;;;;;;;4981243;28;20220;-69
2023/09/17 01:00:59;;;;;;;537.60;265.77;;;;;;;;;;4979593;28;20193;-69
2023/09/17 01:03:28;;;;;;;493.37;235.93;;;;;;;;;;4978531;28;20213;-70
2023/09/17 01:05:54;;;;;;;504.80;243.13;;;;;;;;;;4984110;28;20652;-70
2023/09/17 01:08:22;;;;;;;459.87;215.33;;;;;;;;;;4982659;28;20259;-69
2023/09/17 01:10:49;;;;;;;496.23;236.73;;;;;;;;;;4960958;28;20312;-72
2023/09/17 01:13:15;;;;;;;478.03;227.33;;;;;;;;;;4957305;28;20267;-70
2023/09/17 01:15:41;;;;;;;526.53;253.43;;;;;;;;;;4957580;28;20178;-70
2023/09/17 01:18:10;;;;;;;463.73;227.20;;;;;;;;;;4976632;28;20209;-69
2023/09/17 01:20:41;;;;;;;499.03;238.97;;;;;;;;;;4956364;28;20209;-70
2023/09/17 01:23:14;;;;;;;490.63;227.70;;;;;;;;;;4956950;28;20284;-70
2023/09/17 01:25:49;;;;;;;504.40;243.40;;;;;;;;;;4959040;28;20697;-70
2023/09/17 01:28:15;;;;;;;483.43;228.90;;;;;;;;;;4980016;28;20217;-70
2023/09/17 01:30:41;;;;;;;446.93;206.10;;;;;;;;;;4971227;28;20321;-69
2023/09/17 01:33:09;;;;;;;489.20;231.33;;;;;;;;;;4971080;28;20213;-70
2023/09/17 01:35:35;;;;;;;502.50;242.87;;;;;;;;;;4971009;28;20670;-69
2023/09/17 01:38:03;;;;;;;525.97;248.70;;;;;;;;;;4957355;28;20351;-70
2023/09/17 01:40:29;;;;;;;490.97;232.93;;;;;;;;;;4973096;28;20375;-69
2023/09/17 01:42:57;;;;;;;497.03;239.87;;;;;;;;;;4954268;28;20682;-69
2023/09/17 01:45:23;;;;;;;445.63;210.17;;;;;;;;;;4961749;28;20447;-68
2023/09/17 01:47:49;;;;;;;465.47;219.97;;;;;;;;;;4981793;28;20836;-70
2023/09/17 01:50:16;;;;;;;507.63;248.83;;;;;;;;;;4979968;28;21649;-70
2023/09/17 01:52:43;;;;;;;498.70;235.03;;;;;;;;;;4982459;28;20279;-70
2023/09/17 01:55:10;;;;;;;479.40;224.87;;;;;;;;;;4974178;28;20217;-69
2023/09/17 01:57:35;;;;;;;465.63;218.30;;;;;;;;;;4958865;28;20205;-69
2023/09/17 02:00:14;;;;;;;503.87;247.13;;;;;;;;;;4956054;28;20762;-70
2023/09/17 02:02:40;;;;;;;502.93;237.77;;;;;;;;;;4961282;28;20927;-70
2023/09/17 02:05:06;;;;;;;464.60;216.47;;;;;;;;;;4963117;28;20221;-69
2023/09/17 02:07:32;;;;;;;518.47;243.67;;;;;;;;;;4965807;28;20233;-69
2023/09/17 02:09:58;;;;;;;492.83;229.77;;;;;;;;;;4982755;28;20181;-69
2023/09/17 02:12:24;;;;;;;521.63;245.43;;;;;;;;;;4951764;28;20938;-71
2023/09/17 02:14:50;;;;;;;467.90;213.93;;;;;;;;;;4973019;28;20209;-69
2023/09/17 02:17:16;;;;;;;525.03;247.27;;;;;;;;;;4971793;28;20938;-69
2023/09/17 02:19:44;;;;;;;501.10;238.77;;;;;;;;;;4956459;28;20209;-69
2023/09/17 02:22:10;;;;;;;486.77;227.50;;;;;;;;;;4975522;28;20217;-69
2023/09/17 02:24:36;;;;;;;481.83;225.43;;;;;;;;;;4974184;28;20239;-70
2023/09/17 02:27:02;;;;;;;502.43;235.60;;;;;;;;;;4955781;28;20263;-69
2023/09/17 02:29:28;;;;;;;487.60;223.27;;;;;;;;;;4976841;28;20214;-70
2023/09/17 02:31:54;;;;;;;477.90;218.60;;;;;;;;;;4977033;28;20634;-69
2023/09/17 02:34:20;;;;;;;511.27;239.13;;;;;;;;;;4971884;28;20221;-70
2023/09/17 02:36:46;;;;;;;491.63;231.53;;;;;;;;;;4974070;28;20204;-70
2023/09/17 02:39:13;;;;;;;519.90;244.70;;;;;;;;;;4958347;28;20209;-74
2023/09/17 02:41:39;;;;;;;465.60;210.23;;;;;;;;;;4962093;28;20767;-73
2023/09/17 02:44:06;;;;;;;507.87;235.23;;;;;;;;;;4980096;28;20259;-74
2023/09/17 02:46:32;;;;;;;524.03;245.57;;;;;;;;;;4977424;28;20228;-73
2023/09/17 02:48:58;;;;;;;527.60;252.63;;;;;;;;;;4969682;28;20190;-73
2023/09/17 02:51:24;;;;;;;461.03;211.00;;;;;;;;;;4960791;28;20190;-73
2023/09/17 02:53:49;;;;;;;484.13;224.73;;;;;;;;;;4975314;28;20224;-73
2023/09/17 02:56:16;;;;;;;504.00;235.50;;;;;;;;;;4974435;28;20614;-74
2023/09/17 02:58:41;;;;;;;495.30;230.27;;;;;;;;;;4964085;28;20275;-74
2023/09/17 03:01:15;;;;;;;478.40;218.53;;;;;;;;;;4962232;28;20228;-75
2023/09/17 03:03:41;;;;;;;488.10;220.90;;;;;;;;;;4978637;28;20224;-74
2023/09/17 03:06:10;;;;;;;524.67;246.27;;;;;;;;;;4978063;28;20217;-74
2023/09/17 03:08:41;;;;;;;507.07;234.20;;;;;;;;;;4958357;28;20243;-75
2023/09/17 03:11:07;;;;;;;526.37;243.93;;;;;;;;;;4955767;28;20217;-73
2023/09/17 03:13:33;;;;;;;475.97;216.10;;;;;;;;;;4963930;28;20931;-73
2023/09/17 03:15:59;;;;;;;479.70;223.50;;;;;;;;;;4965071;28;20628;-75
2023/09/17 03:18:25;;;;;;;496.57;230.07;;;;;;;;;;4980427;28;20216;-75
2023/09/17 03:20:52;;;;;;;480.43;219.63;;;;;;;;;;4983114;28;20877;-74
2023/09/17 03:23:18;;;;;;;515.43;237.87;;;;;;;;;;4984694;28;20307;-75
2023/09/17 03:25:44;;;;;;;536.33;253.57;;;;;;;;;;4961904;28;20260;-73
2023/09/17 03:28:11;;;;;;;494.10;222.90;;;;;;;;;;4960859;28;20340;-73
2023/09/17 03:30:38;;;;;;;465.67;211.13;;;;;;;;;;4964429;28;20186;-76
2023/09/17 03:33:05;;;;;;;502.13;231.67;;;;;;;;;;4959639;28;20233;-74
2023/09/17 03:35:31;;;;;;;499.40;228.13;;;;;;;;;;4964744;28;20228;-73
2023/09/17 03:37:57;;;;;;;507.17;235.63;;;;;;;;;;4981516;28;20209;-72
2023/09/17 03:40:23;;;;;;;504.70;239.67;;;;;;;;;;4964340;28;20216;-75
2023/09/17 03:42:49;;;;;;;503.93;233.40;;;;;;;;;;4972505;28;20188;-73
2023/09/17 03:45:15;;;;;;;528.00;247.30;;;;;;;;;;4964562;28;20390;-72
2023/09/17 03:47:41;;;;;;;498.70;223.83;;;;;;;;;;4966658;28;20237;-75
2023/09/17 03:50:08;;;;;;;511.03;236.97;;;;;;;;;;4967340;28;20208;-74
2023/09/17 03:52:35;;;;;;;472.77;218.97;;;;;;;;;;4964515;28;20259;-73
2023/09/17 03:55:02;;;;;;;516.77;245.57;;;;;;;;;;4979537;28;20197;-75
2023/09/17 03:57:28;;;;;;;496.87;224.80;;;;;;;;;;4962589;28;20341;-73
2023/09/17 03:59:54;;;;;;;468.37;210.63;;;;;;;;;;4982812;28;20228;-73
2023/09/17 04:02:20;;;;;;;499.00;228.43;;;;;;;;;;4979097;28;20217;-72
2023/09/17 04:04:47;;;;;;;485.97;220.20;;;;;;;;;;4980759;28;20225;-73
2023/09/17 04:07:13;;;;;;;494.77;224.33;;;;;;;;;;4962579;28;20243;-73
2023/09/17 04:09:38;;;;;;;481.13;217.83;;;;;;;;;;4976196;28;20188;-74
2023/09/17 04:12:05;;;;;;;483.10;214.23;;;;;;;;;;4955960;28;20703;-73
2023/09/17 04:14:31;;;;;;;477.80;218.07;;;;;;;;;;4979911;28;20315;-72
2023/09/17 04:17:01;;;;;;;508.33;237.03;;;;;;;;;;4957929;28;20221;-75
2023/09/17 04:19:28;;;;;;;494.40;226.13;;;;;;;;;;4977394;28;20217;-73
2023/09/17 04:21:54;;;;;;;521.73;243.43;;;;;;;;;;4963251;28;20182;-74
2023/09/17 04:24:20;;;;;;;467.63;218.00;;;;;;;;;;4965146;28;20214;-72
2023/09/17 04:26:46;;;;;;;511.83;240.07;;;;;;;;;;4958292;28;20227;-74
2023/09/17 04:29:13;;;;;;;497.50;229.63;;;;;;;;;;4981203;28;20205;-72
2023/09/17 04:31:39;;;;;;;500.43;224.87;;;;;;;;;;4966375;28;20209;-73
2023/09/17 04:34:05;;;;;;;470.23;213.53;;;;;;;;;;4976912;28;20232;-72
2023/09/17 04:36:31;;;;;;;513.23;235.07;;;;;;;;;;4981071;28;20210;-72
2023/09/17 04:38:57;;;;;;;497.57;224.00;;;;;;;;;;4986697;28;20835;-73
2023/09/17 04:41:23;;;;;;;484.57;222.47;;;;;;;;;;4976560;28;20205;-74
2023/09/17 04:43:49;;;;;;;483.93;220.13;;;;;;;;;;4978302;28;21136;-72
2023/09/17 04:46:15;;;;;;;498.53;228.10;;;;;;;;;;4961127;28;20320;-74
2023/09/17 04:48:41;;;;;;;540.70;257.00;;;;;;;;;;4978595;28;20189;-73
2023/09/17 04:51:07;;;;;;;512.50;242.20;;;;;;;;;;4959563;28;20235;-73
2023/09/17 04:53:33;;;;;;;490.40;228.00;;;;;;;;;;4963731;28;20217;-73
2023/09/17 04:55:59;;;;;;;505.17;233.70;;;;;;;;;;4959625;28;20216;-74
2023/09/17 04:58:25;;;;;;;497.10;226.00;;;;;;;;;;4975373;28;20299;-75
2023/09/17 05:00:53;;;;;;;499.07;226.73;;;;;;;;;;4959268;28;20193;-74
2023/09/17 05:03:19;;;;;;;483.60;223.57;;;;;;;;;;4964163;28;20180;-73
2023/09/17 05:05:46;;;;;;;461.30;207.83;;;;;;;;;;4962587;28;20210;-73
2023/09/17 05:08:16;;;;;;;505.17;235.50;;;;;;;;;;4971119;28;20401;-72
2023/09/17 05:10:42;;;;;;;497.97;230.93;;;;;;;;;;4975719;28;20217;-73
2023/09/17 05:13:08;;;;;;;534.27;253.50;;;;;;;;;;4954106;28;20825;-73
2023/09/17 05:15:35;;;;;;;484.87;215.90;;;;;;;;;;4953707;28;20291;-73
2023/09/17 05:18:06;;;;;;;487.70;218.73;;;;;;;;;;4979173;28;20757;-72
2023/09/17 05:20:32;;;;;;;462.13;209.20;;;;;;;;;;4963564;28;20223;-73
2023/09/17 05:22:58;;;;;;;521.00;238.40;;;;;;;;;;4956433;28;20212;-74
2023/09/17 05:25:24;;;;;;;468.30;213.40;;;;;;;;;;4976294;28;20232;-73
2023/09/17 05:27:50;;;;;;;463.63;210.93;;;;;;;;;;4951251;28;20482;-72
2023/09/17 05:30:17;;;;;;;513.40;246.70;;;;;;;;;;4955774;28;20189;-73
2023/09/17 05:32:43;;;;;;;473.13;218.37;;;;;;;;;;4978545;28;20224;-78
2023/09/17 05:35:09;;;;;;;514.03;245.80;;;;;;;;;;4955438;28;20205;-74
2023/09/17 05:37:35;;;;;;;438.47;198.17;;;;;;;;;;4962631;28;20228;-73
2023/09/17 05:40:01;;;;;;;472.43;217.50;;;;;;;;;;4973669;28;20194;-74
2023/09/17 05:42:27;;;;;;;468.70;212.57;;;;;;;;;;4972481;28;20201;-74
2023/09/17 05:44:53;;;;;;;457.60;208.57;;;;;;;;;;4961536;28;20294;-73
2023/09/17 05:47:20;;;;;;;470.97;215.30;;;;;;;;;;4975355;28;20711;-74
2023/09/17 05:49:46;;;;;;;455.17;198.87;;;;;;;;;;4963397;28;20217;-74
2023/09/17 05:52:12;;;;;;;485.10;221.87;;;;;;;;;;4959055;28;20216;-74
2023/09/17 05:54:38;;;;;;;479.60;216.80;;;;;;;;;;4964639;28;20184;-74
2023/09/17 05:57:04;;;;;;;505.83;238.20;;;;;;;;;;4957364;28;20664;-74
2023/09/17 05:59:29;;;;;;;468.93;219.80;;;;;;;;;;4960646;28;20305;-74
2023/09/17 06:01:57;;;;;;;438.10;199.23;;;;;;;;;;4979170;28;20312;-73
2023/09/17 06:04:23;;;;;;;483.27;222.37;;;;;;;;;;4976826;28;20229;-74
2023/09/17 06:06:49;;;;;;;463.60;214.50;;;;;;;;;;4978141;28;20541;-74
2023/09/17 06:09:15;;;;;;;563.50;278.37;;;;;;;;;;4970688;28;20240;-74
2023/09/17 06:11:41;;;;;;;465.87;211.00;;;;;;;;;;4969990;28;20229;-73
2023/09/17 06:14:06;;;;;;;499.73;230.00;;;;;;;;;;4978117;28;23212;-74
2023/09/17 06:16:33;;;;;;;476.93;218.63;;;;;;;;;;4955622;28;20221;-78
2023/09/17 06:18:59;;;;;;;477.57;219.83;;;;;;;;;;4964569;28;20185;-72
2023/09/17 06:21:25;;;;;;;611.63;309.47;;;;;;;;;;4977639;28;21570;-73
2023/09/17 06:23:51;;;;;;;505.67;240.63;;;;;;;;;;4964178;28;20217;-74
2023/09/17 06:26:17;;;;;;;488.67;227.30;;;;;;;;;;4974664;28;20578;-73
2023/09/17 06:28:43;;;;;;;492.67;231.80;;;;;;;;;;4961144;28;20228;-75
2023/09/17 06:31:09;;;;;;;480.30;223.27;;;;;;;;;;4977333;28;20217;-76
2023/09/17 06:33:35;;;;;;;526.70;252.87;;;;;;;;;;4963994;28;20197;-73
2023/09/17 06:36:01;;;;;;;465.93;214.07;;;;;;;;;;4955864;28;20209;-74
2023/09/17 06:38:27;;;;;;;532.10;259.23;;;;;;;;;;4950839;28;20260;-74
2023/09/17 06:40:53;;;;;;;539.67;264.00;;;;;;;;;;4960847;28;20249;-73
2023/09/17 06:43:18;;;;;;;478.70;230.20;;;;;;;;;;4968148;28;20224;-72
2023/09/17 06:45:44;;;;;;;522.93;248.03;;;;;;;;;;4979747;28;20209;-71
2023/09/17 06:48:10;;;;;;;479.87;229.17;;;;;;;;;;4975706;28;20678;-74
2023/09/17 06:50:36;;;;;;;482.47;226.20;;;;;;;;;;4983170;28;20212;-72
2023/09/17 06:53:04;;;;;;;528.27;256.57;;;;;;;;;;4975683;28;20730;-76
2023/09/17 06:55:30;;;;;;;494.17;242.40;;;;;;;;;;4958786;28;20325;-78
2023/09/17 06:57:56;;;;;;;505.90;252.93;;;;;;;;;;4979923;28;20875;-78
2023/09/17 07:00:21;;;;;;;526.97;260.97;;;;;;;;;;4955111;28;20247;-75
2023/09/17 07:02:47;;;;;;;475.37;229.50;;;;;;;;;;4955200;28;20225;-75
2023/09/17 07:05:13;;;;;;;498.77;244.93;;;;;;;;;;4959182;28;20255;-75
2023/09/17 07:07:39;;;;;;;527.17;266.97;;;;;;;;;;4957178;28;20249;-77
2023/09/17 07:10:06;;;;;;;515.67;262.10;;;;;;;;;;4948090;28;20319;-75
2023/09/17 07:12:37;;;;;;;543.83;273.03;;;;;;;;;;4969475;28;20200;-76
2023/09/17 07:15:10;;;;;;;493.43;249.80;;;;;;;;;;4969258;28;20254;-75
2023/09/17 07:17:36;;;;;;;502.03;258.17;;;;;;;;;;4952367;28;20229;-74
2023/09/17 07:20:04;;;;;;;459.10;231.90;;;;;;;;;;4968975;28;20218;-72
2023/09/17 07:22:30;;;;;;;498.67;247.07;;;;;;;;;;4973104;28;20225;-73
2023/09/17 07:24:58;;;;;;;458.63;224.93;;;;;;;;;;4955928;28;20318;-72
2023/09/17 07:27:24;;;;;;;484.37;245.30;;;;;;;;;;4973067;28;20204;-73
2023/09/17 07:29:50;;;;;;;470.13;237.30;;;;;;;;;;4978863;28;20217;-73
2023/09/17 07:32:16;;;;;;;493.63;259.17;;;;;;;;;;4975559;28;20753;-73
2023/09/17 07:34:42;;;;;;;458.53;236.37;;;;;;;;;;4974022;28;20283;-73
2023/09/17 07:37:08;;;;;;;506.03;267.43;;;;;;;;;;4959091;28;20307;-74
2023/09/17 07:39:34;;;;;;;451.67;234.30;;;;;;;;;;4958410;28;20501;-64
2023/09/17 07:42:00;;;;;;;478.67;250.77;;;;;;;;;;4973254;28;20246;-61
2023/09/17 07:44:26;;;;;;;501.67;267.83;;;;;;;;;;4976747;28;20240;-62
2023/09/17 07:46:52;;;;;;;464.87;249.37;;;;;;;;;;4984147;28;20217;-62
2023/09/17 07:49:18;;;;;;;465.30;252.10;;;;;;;;;;4984914;28;21025;-61
2023/09/17 07:51:44;;;;;;;457.73;250.33;;;;;;;;;;4967027;28;20277;-63
2023/09/17 07:54:10;;;;;;;464.60;249.43;;;;;;;;;;4979833;28;20225;-62
2023/09/17 07:56:36;;;;;;;485.60;259.00;;;;;;;;;;4972401;28;20229;-61
2023/09/17 07:59:02;;;;;;;447.13;242.43;;;;;;;;;;4978938;28;20213;-62
2023/09/17 08:01:28;;;;;;;503.20;271.17;;;;;;;;;;4977473;28;20223;-61
2023/09/17 08:03:54;;;;;;;521.50;280.77;;;;;;;;;;4975447;28;20734;-73
2023/09/17 08:06:20;;;;;;;498.43;270.47;;;;;;;;;;4961152;28;20201;-72
2023/09/17 08:08:47;;;;;;;475.20;252.43;;;;;;;;;;4962430;28;20240;-73
2023/09/17 08:11:15;;;;;;;488.43;260.70;;;;;;;;;;4980452;28;20240;-72
2023/09/17 08:13:41;;;;;;;463.67;253.47;;;;;;;;;;4980297;28;20225;-73
2023/09/17 08:16:07;;;;;;;462.07;249.33;;;;;;;;;;4958765;28;20847;-73
2023/09/17 08:18:33;;;;;;;477.10;265.73;;;;;;;;;;4977180;28;20200;-73
2023/09/17 08:20:59;;;;;;;470.73;256.87;;;;;;;;;;4982859;28;20826;-73
2023/09/17 08:23:25;;;;;;;492.00;269.00;;;;;;;;;;4959285;28;20241;-78
2023/09/17 08:25:52;;;;;;;504.60;280.33;;;;;;;;;;4960012;28;20217;-73
2023/09/17 08:28:22;;;;;;;492.63;277.70;;;;;;;;;;4976167;28;20225;-74
2023/09/17 08:30:48;;;;;;;438.50;248.43;;;;;;;;;;4960095;28;20174;-73
2023/09/17 08:33:15;;;;;;;498.63;275.53;;;;;;;;;;4977983;28;20244;-73
2023/09/17 08:35:41;;;;;;;455.13;252.83;;;;;;;;;;4983079;28;20328;-73
2023/09/17 08:38:07;;;;;;;569.77;320.40;;;;;;;;;;4976776;22;20225;-56
2023/09/17 08:40:34;;;;;;;603.20;343.30;;;;;;;;;;4999969;28;20600;-56
2023/09/17 08:43:01;;;;;;;517.60;290.27;;;;;;;;;;5001028;28;20208;-57
2023/09/17 08:45:28;;;;;;;531.33;307.03;;;;;;;;;;5002527;28;20211;-55
2023/09/17 08:47:54;;;;;;;541.27;304.77;;;;;;;;;;5002669;28;20215;-57
2023/09/17 08:50:20;;;;;;;563.50;328.27;;;;;;;;;;4987219;28;20396;-55
2023/09/17 08:52:48;;;;;;;522.70;302.97;;;;;;;;;;5010180;28;20243;-55
2023/09/17 08:55:17;;;;;;;472.63;272.10;;;;;;;;;;4998808;28;20216;-56
2023/09/17 08:57:43;;;;;;;535.93;315.87;;;;;;;;;;4995229;28;20212;-56
2023/09/17 09:00:11;;;;;;;521.93;302.00;;;;;;;;;;5009685;28;20219;-56
2023/09/17 09:02:54;;;;;;;511.47;299.43;;;;;;;;;;5013247;28;20212;-56
2023/09/17 09:05:25;;;;;;;568.93;329.67;;;;;;;;;;4994988;28;20578;-56
2023/09/17 09:07:51;;;;;;;500.47;303.43;;;;;;;;;;4988694;28;21136;-56
2023/09/17 09:10:18;;;;;;;511.93;299.57;;;;;;;;;;4996123;28;20222;-56
2023/09/17 09:12:45;;;;;;;502.33;298.83;;;;;;;;;;4990617;28;20196;-56
2023/09/17 09:15:11;;;;;;;527.20;312.27;;;;;;;;;;4995288;28;20231;-55
2023/09/17 09:17:40;;;;;;;563.73;340.00;;;;;;;;;;4986689;28;20314;-56
2023/09/17 09:20:09;;;;;;;558.63;332.47;;;;;;;;;;4992038;28;20679;-56
2023/09/17 09:22:36;;;;;;;503.40;306.87;;;;;;;;;;5000604;28;22122;-56
2023/09/17 09:25:03;;;;;;;519.27;314.27;;;;;;;;;;5011197;28;20579;-55
2023/09/17 09:27:29;;;;;;;532.20;318.20;;;;;;;;;;4996645;28;20188;-56
2023/09/17 09:29:55;;;;;;;505.73;298.63;;;;;;;;;;4991524;28;20307;-55
2023/09/17 09:32:21;;;;;;;532.40;316.40;;;;;;;;;;5006358;28;20223;-57
2023/09/17 09:34:48;;;;;;;528.20;315.63;;;;;;;;;;4994836;28;20230;-56
2023/09/17 09:37:14;;;;;;;563.07;335.33;;;;;;;;;;4982392;28;20620;-57
2023/09/17 09:39:43;;;;;;;486.17;302.13;;;;;;;;;;4991447;28;20212;-56
2023/09/17 09:42:11;;;;;;;603.20;365.77;;;;;;;;;;4983595;28;20227;-56
2023/09/17 09:44:37;;;;;;;585.60;359.10;;;;;;;;;;4974359;28;20228;-56
2023/09/17 09:47:04;;;;;;;584.93;357.83;;;;;;;;;;4970461;28;22018;-57
2023/09/17 09:49:39;;;;;;;634.57;401.00;;;;;;;;;;4976313;28;20312;-57
2023/09/17 09:52:05;;;;;;;549.63;341.83;;;;;;;;;;4980207;28;20219;-59
2023/09/17 09:54:31;;;;;;;520.37;322.17;;;;;;;;;;5003299;28;20185;-59
2023/09/17 09:56:57;;;;;;;562.83;357.80;;;;;;;;;;5002276;28;20224;-59
2023/09/17 09:59:24;;;;;;;462.43;305.33;;;;;;;;;;5004146;28;20227;-59
2023/09/17 10:01:49;;;;;;;407.67;271.43;;;;;;;;;;5016826;28;20215;-58
2023/09/17 10:04:16;;;;;;;417.77;280.00;;;;;;;;;;5013605;28;20784;-57
2023/09/17 10:06:42;;;;;;;417.43;276.63;;;;;;;;;;5007878;28;20176;-58
2023/09/17 10:09:10;;;;;;;417.00;283.70;;;;;;;;;;5013409;28;20246;-57
2023/09/17 10:11:37;;;;;;;453.87;306.03;;;;;;;;;;5021704;23;20602;-66
2023/09/17 10:14:04;;;;;;;393.17;270.17;;;;;;;;;;5002029;28;20223;-67
2023/09/17 10:16:30;;;;;;;418.60;284.87;;;;;;;;;;5001406;28;20220;-67
2023/09/17 10:18:57;;;;;;;392.67;275.27;;;;;;;;;;5004346;28;20208;-67
2023/09/17 10:21:24;;;;;;;414.83;284.17;;;;;;;;;;4998681;28;20256;-66
2023/09/17 10:23:50;;;;;;;400.73;278.93;;;;;;;;;;4999443;28;20229;-66
2023/09/17 10:26:20;;;;;;;396.43;278.97;;;;;;;;;;5001404;28;20212;-66
2023/09/17 10:28:47;;;;;;;413.97;284.50;;;;;;;;;;5002090;28;20291;-66
2023/09/17 10:31:13;;;;;;;405.93;290.53;;;;;;;;;;4994884;28;20221;-66
2023/09/17 10:33:44;;;;;;;409.33;288.20;;;;;;;;;;5000728;28;20718;-66
2023/09/17 10:36:10;;;;;;;404.23;287.43;;;;;;;;;;4999196;28;20913;-66
2023/09/17 10:38:39;;;;;;;410.77;286.67;;;;;;;;;;5002719;28;20306;-66
2023/09/17 10:41:05;;;;;;;398.53;283.93;;;;;;;;;;4982075;28;20721;-66
2023/09/17 10:43:33;;;;;;;417.40;293.57;;;;;;;;;;5000422;28;20776;-66
2023/09/17 10:45:59;;;;;;;397.30;287.53;;;;;;;;;;5004033;28;20181;-66
2023/09/17 10:48:27;;;;;;;440.50;313.37;;;;;;;;;;4999204;28;20200;-66
2023/09/17 10:50:53;;;;;;;402.40;288.67;;;;;;;;;;5000422;28;20275;-65
2023/09/17 10:53:19;;;;;;;399.13;284.47;;;;;;;;;;4983698;28;20216;-65
2023/09/17 10:55:47;;;;;;;435.93;310.63;;;;;;;;;;5001168;28;20224;-65
2023/09/17 10:58:16;;;;;;;414.57;297.57;;;;;;;;;;4999004;28;20224;-65
2023/09/17 11:00:43;;;;;;;407.57;301.00;;;;;;;;;;4996559;28;20649;-65
2023/09/17 11:03:10;;;;;;;400.90;297.20;;;;;;;;;;5001373;28;20305;-66
2023/09/17 11:05:36;;;;;;;440.20;321.47;;;;;;;;;;5000544;28;20306;-65
2023/09/17 11:08:04;;;;;;;403.37;297.10;;;;;;;;;;4989830;28;20299;-66
2023/09/17 11:10:30;;;;;;;418.47;305.37;;;;;;;;;;4998014;28;20217;-65
2023/09/17 11:12:56;;;;;;;402.33;301.63;;;;;;;;;;5002173;28;20196;-65
2023/09/17 11:15:22;;;;;;;410.80;308.53;;;;;;;;;;4991574;28;20178;-66
2023/09/17 11:17:48;;;;;;;403.97;303.13;;;;;;;;;;4998601;28;20579;-65
2023/09/17 11:20:18;;;;;;;441.90;330.67;;;;;;;;;;5002852;28;21474;-66
2023/09/17 11:22:44;;;;;;;403.53;304.90;;;;;;;;;;5005325;28;20212;-66
2023/09/17 11:25:11;;;;;;;405.20;307.53;;;;;;;;;;4988305;28;20290;-65
2023/09/17 11:27:50;;;;;;;429.20;324.57;;;;;;;;;;5004962;28;20189;-65
2023/09/17 11:30:22;;;;;;;417.20;314.67;;;;;;;;;;5006477;28;20316;-66
2023/09/17 11:32:53;;;;;;;408.20;313.13;;;;;;;;;;5006946;28;20587;-66
2023/09/17 11:35:22;;;;;;;417.33;322.30;;;;;;;;;;5002490;28;20208;-66
2023/09/17 11:37:48;;;;;;;406.50;315.67;;;;;;;;;;5005722;28;20209;-66
2023/09/17 11:40:15;;;;;;;435.90;341.00;;;;;;;;;;5005684;28;20220;-66
2023/09/17 11:42:41;;;;;;;409.27;328.20;;;;;;;;;;4986551;28;20193;-65
2023/09/17 11:45:09;;;;;;;407.53;319.67;;;;;;;;;;5005728;28;20221;-66
2023/09/17 11:47:35;;;;;;;432.80;327.67;;;;;;;;;;5005392;28;20267;-66
2023/09/17 11:50:03;;;;;;;411.17;321.17;;;;;;;;;;5001750;28;20224;-66
2023/09/17 11:52:29;;;;;;;438.17;338.80;;;;;;;;;;5002802;28;20244;-65
2023/09/17 11:55:03;;;;;;;398.90;319.57;;;;;;;;;;5006303;28;20209;-65
2023/09/17 11:57:29;;;;;;;431.97;337.50;;;;;;;;;;4998612;28;20195;-66
2023/09/17 11:59:55;;;;;;;429.77;343.53;;;;;;;;;;5001916;28;20217;-66
2023/09/17 12:02:22;;;;;;;409.23;333.93;;;;;;;;;;5001709;28;20220;-65
2023/09/17 12:04:49;;;;;;;387.03;313.73;;;;;;;;;;4998873;28;20224;-66
2023/09/17 12:07:15;;;;;;;409.27;334.67;;;;;;;;;;4997305;28;20252;-65
2023/09/17 12:10:00;;;;;;;421.53;346.77;;;;;;;;;;5005167;28;20289;-65
2023/09/17 12:12:27;;;;;;;441.03;352.10;;;;;;;;;;5002584;28;20735;-66
2023/09/17 12:14:53;;;;;;;431.83;347.00;;;;;;;;;;4996403;28;20228;-65
2023/09/17 12:17:19;;;;;;;410.03;341.17;;;;;;;;;;5004817;28;20205;-65
2023/09/17 12:19:46;;;;;;;417.07;347.60;;;;;;;;;;5003073;28;20724;-66
2023/09/17 12:22:13;;;;;;;427.50;361.63;;;;;;;;;;5002366;28;20216;-66
2023/09/17 12:24:44;;;;;;;413.53;348.70;;;;;;;;;;5005676;28;20197;-66
2023/09/17 12:29:57;;;;;;;399.37;343.90;;;;;;;;;;5001429;28;20217;-66
2023/09/17 12:32:25;;;;;;;410.07;353.23;;;;;;;;;;5004502;28;20215;-66
2023/09/17 12:34:52;;;;;;;458.20;379.00;;;;;;;;;;4998489;28;20213;-65
2023/09/17 12:37:18;;;;;;;414.93;360.30;;;;;;;;;;5005017;28;20247;-65
2023/09/17 12:39:44;;;;;;;532.10;402.43;;;;;;;;;;4999506;28;20872;-66
2023/09/17 12:42:10;;;;;;;559.80;422.23;;;;;;;;;;4978280;28;20229;-65
2023/09/17 12:44:36;;;;;;;525.77;398.07;;;;;;;;;;4974278;28;20217;-65
2023/09/17 12:47:03;;;;;;;567.03;431.30;;;;;;;;;;4987035;28;20228;-61
2023/09/17 12:49:29;;;;;;;529.93;410.97;;;;;;;;;;4992070;28;20274;-61
2023/09/17 12:51:55;;;;;;;498.70;401.30;;;;;;;;;;4999853;28;20250;-62
2023/09/17 12:54:21;;;;;;;552.07;414.67;;;;;;;;;;4998773;28;20271;-62
2023/09/17 12:56:48;;;;;;;485.47;397.60;;;;;;;;;;4999511;28;20289;-62
2023/09/17 12:59:14;;;;;;;551.60;417.43;;;;;;;;;;4994818;28;20285;-62
2023/09/17 13:01:52;;;;;;;559.83;429.57;;;;;;;;;;4995562;28;20251;-61
2023/09/17 13:04:19;;;;;;;513.67;407.30;;;;;;;;;;4978226;28;20225;-61
2023/09/17 13:06:45;;;;;;;529.30;406.47;;;;;;;;;;4995696;28;20284;-62
2023/09/17 13:09:12;;;;;;;524.10;406.03;;;;;;;;;;4997336;28;20216;-62
2023/09/17 13:11:38;;;;;;;544.57;422.70;;;;;;;;;;4994599;28;20305;-62
2023/09/17 13:14:04;;;;;;;517.43;412.83;;;;;;;;;;4996855;28;20216;-61
2023/09/17 13:16:31;;;;;;;596.70;457.60;;;;;;;;;;4995201;28;20213;-62
2023/09/17 13:18:57;;;;;;;562.20;431.20;;;;;;;;;;4988644;28;20209;-62
2023/09/17 13:21:23;;;;;;;567.73;433.80;;;;;;;;;;4994233;28;20818;-62
2023/09/17 13:23:49;;;;;;;577.43;442.10;;;;;;;;;;4992985;28;20240;-61
2023/09/17 13:26:15;;;;;;;527.17;427.03;;;;;;;;;;4993005;28;20216;-62
2023/09/17 13:28:41;;;;;;;543.77;446.87;;;;;;;;;;4994876;28;20254;-62
2023/09/17 13:31:08;;;;;;;558.47;447.70;;;;;;;;;;4994975;28;20247;-62
2023/09/17 13:33:37;;;;;;;580.43;468.83;;;;;;;;;;4973730;28;20224;-65
2023/09/17 13:36:04;;;;;;;555.80;474.60;;;;;;;;;;4989042;28;20208;-62
2023/09/17 13:38:30;;;;;;;587.90;486.07;;;;;;;;;;4984016;28;20235;-63
2023/09/17 13:40:56;;;;;;;560.50;481.70;;;;;;;;;;4983960;28;20935;-63
2023/09/17 13:43:22;;;;;;;555.38;491.55;;;;;;;;;;4987213;28;20311;-63
2023/09/17 13:45:51;;;;;;;573.90;511.05;;;;;;;;;;4990451;28;20769;-63
2023/09/17 13:48:17;;;;;;;599.78;535.75;;;;;;;;;;4987205;28;20208;-62
2023/09/17 13:50:44;;;;;;;621.42;557.47;;;;;;;;;;4989537;28;20786;-63